Anna Noli — IZEL — position and weather

sailwx.info

Track history (hours):
 
Tides and Currents Weather Stations Pressure Air Temp Water Temp Dewpoint Dewpoint Depression Visibility Wind Speed Wind Dir Waves Ship Positions

Anna Noli

Last reported at 2016-Dec-09 20:30 UTC. Time now 2016-Dec-09 21:21 UTC.
Position N 44°16' E 008°27'.

Length 32 m.

Type: Tug. MMSI: 247046500.

Date/timePositionNaut miles runAvg speedWind from/ knotsBaromVisibWave heightAir tempDewpointWater temp
2016-Dec-09 20:30N 44°16' E 008°27'0 0.0
2016-Dec-09 19:30N 44°16' E 008°27'0 0.0
2016-Dec-09 18:30N 44°16' E 008°27'0 0.0
2016-Dec-09 17:30N 44°16' E 008°27'0 0.0
2016-Dec-09 16:30N 44°16' E 008°27'0 0.0
2016-Dec-09 15:30N 44°16' E 008°27'0 0.0
2016-Dec-09 14:30N 44°16' E 008°27'0 0.0
2016-Dec-09 13:30N 44°16' E 008°27'0 0.0
2016-Dec-09 12:30N 44°16' E 008°27'0 0.0
2016-Dec-09 11:30N 44°16' E 008°27'0 0.0
2016-Dec-09 10:30N 44°16' E 008°27'0 0.0
2016-Dec-09 09:30N 44°16' E 008°27'0 0.0
2016-Dec-09 08:30N 44°16' E 008°27'0 0.0
2016-Dec-09 07:30N 44°16' E 008°27'0 0.0
2016-Dec-09 06:30N 44°16' E 008°27'1 0.6
2016-Dec-09 05:33N 44°16' E 008°27'1 0.6
2016-Dec-09 04:31N 44°16' E 008°27'0 0.0
2016-Dec-09 03:31N 44°16' E 008°27'0 0.0
2016-Dec-09 02:31N 44°16' E 008°27'0 0.0
2016-Dec-09 01:31N 44°16' E 008°27'0 0.0
2016-Dec-09 00:31N 44°16' E 008°27'0 0.0
2016-Dec-08 23:31N 44°16' E 008°27'0 0.0
2016-Dec-08 22:31N 44°16' E 008°27'0 0.0
2016-Dec-08 21:31N 44°16' E 008°27'0 0.0
2016-Dec-08 20:31N 44°16' E 008°27'0 0.0
2016-Dec-08 19:31N 44°16' E 008°27'0 0.0
2016-Dec-08 18:31N 44°16' E 008°27'0 0.0
2016-Dec-08 17:31N 44°16' E 008°27'0 0.0
2016-Dec-08 16:31N 44°16' E 008°27'0 0.0
2016-Dec-08 15:25N 44°16' E 008°27'0 0.0
2016-Dec-08 14:31N 44°16' E 008°27'0 0.0
2016-Dec-08 13:31N 44°16' E 008°27'0 0.0
2016-Dec-08 12:31N 44°16' E 008°27'0 0.0
2016-Dec-08 11:31N 44°16' E 008°27'0 0.0
2016-Dec-08 10:31N 44°16' E 008°27'0 0.0
2016-Dec-08 09:31N 44°16' E 008°27'0 0.0
2016-Dec-08 08:31N 44°16' E 008°27'0 0.0
2016-Dec-08 07:31N 44°16' E 008°27'0 0.0
2016-Dec-08 06:31N 44°16' E 008°27'2 1.6
2016-Dec-08 05:30N 44°16' E 008°29'2 1.7
2016-Dec-08 04:32N 44°16' E 008°27'0 0.0
2016-Dec-08 03:32N 44°16' E 008°27'0 0.0
2016-Dec-08 02:32N 44°16' E 008°27'0 0.0
2016-Dec-08 01:32N 44°16' E 008°27'0 0.0
2016-Dec-08 00:32N 44°16' E 008°27'0 0.0
2016-Dec-07 23:32N 44°16' E 008°27'0 0.0
2016-Dec-07 22:32N 44°16' E 008°27'0 0.0
2016-Dec-07 21:32N 44°16' E 008°27'0 0.0
2016-Dec-07 20:32N 44°16' E 008°27'0 0.0
2016-Dec-07 19:32N 44°16' E 008°27'0 0.0
2016-Dec-07 18:32N 44°16' E 008°27'0 0.0
2016-Dec-07 17:32N 44°16' E 008°27'0 0.0
2016-Dec-07 16:32N 44°16' E 008°27'0 0.0
2016-Dec-07 15:26N 44°16' E 008°27'0 0.0
2016-Dec-07 14:32N 44°16' E 008°27'0 0.0
2016-Dec-07 13:32N 44°16' E 008°27'0 0.0
2016-Dec-07 12:32N 44°16' E 008°27'0 0.0
2016-Dec-07 11:32N 44°16' E 008°27'0 0.3
2016-Dec-07 10:31N 44°16' E 008°27'0 0.4
2016-Dec-07 09:32N 44°16' E 008°27'0 0.5
2016-Dec-07 08:30N 44°17' E 008°28'1 0.9
2016-Dec-07 07:33N 44°16' E 008°28'1 0.8
2016-Dec-07 06:28N 44°16' E 008°27'0 0.0
2016-Dec-07 05:28N 44°16' E 008°27'0 0.0
2016-Dec-07 04:28N 44°16' E 008°27'0 0.0
2016-Dec-07 03:28N 44°16' E 008°27'0 0.0
2016-Dec-07 02:28N 44°16' E 008°27'0 0.0
2016-Dec-07 01:28N 44°16' E 008°27'0 0.0
2016-Dec-07 00:28N 44°16' E 008°27'0 0.0
2016-Dec-06 23:31N 44°16' E 008°27'0 0.0
2016-Dec-06 22:28N 44°16' E 008°27'4 3.7
2016-Dec-06 21:31N 44°19' E 008°30'2 1.7
2016-Dec-06 20:33N 44°17' E 008°29'2 1.0
2016-Dec-06 18:28N 44°16' E 008°27'0 0.0
2016-Dec-06 17:28N 44°16' E 008°27'0 0.0
2016-Dec-06 16:28N 44°16' E 008°27'0 0.0
2016-Dec-06 15:28N 44°16' E 008°27'0 0.0
2016-Dec-06 14:28N 44°16' E 008°27'0 0.0
2016-Dec-06 13:28N 44°16' E 008°27'0 0.1
2016-Dec-06 12:30N 44°16' E 008°27'0 0.2
2016-Dec-06 11:28N 44°16' E 008°27'0 0.2
2016-Dec-06 10:31N 44°16' E 008°27'0 0.0
2016-Dec-06 09:31N 44°16' E 008°27'0 0.0
2016-Dec-06 08:28N 44°16' E 008°27'0 0.0
2016-Dec-06 07:28N 44°16' E 008°27'1 0.6
2016-Dec-06 06:32N 44°16' E 008°27'1 0.5
2016-Dec-06 05:29N 44°16' E 008°27'0 0.0
2016-Dec-06 04:29N 44°16' E 008°27'0 0.0
2016-Dec-06 03:32N 44°16' E 008°27'0 0.0
2016-Dec-06 02:29N 44°16' E 008°27'0 0.0
2016-Dec-06 01:29N 44°16' E 008°27'0 0.0
2016-Dec-06 00:29N 44°16' E 008°27'0 0.0
2016-Dec-05 23:29N 44°16' E 008°27'0 0.0
2016-Dec-05 22:29N 44°16' E 008°27'0 0.0
2016-Dec-05 21:29N 44°16' E 008°27'0 0.0
2016-Dec-05 20:29N 44°16' E 008°27'0 0.0
2016-Dec-05 19:29N 44°16' E 008°27'0 0.0
2016-Dec-05 18:29N 44°16' E 008°27'0 0.0
2016-Dec-05 17:29N 44°16' E 008°27'0 0.0
2016-Dec-05 16:29N 44°16' E 008°27'0 0.0
2016-Dec-05 15:32N 44°16' E 008°27'0 0.0
2016-Dec-05 14:32N 44°16' E 008°27'0 0.0
2016-Dec-05 13:29N 44°16' E 008°27'0 0.0
2016-Dec-05 12:29N 44°16' E 008°27'0 0.0
2016-Dec-05 11:29N 44°16' E 008°27'0 0.0
2016-Dec-05 10:29N 44°16' E 008°27'0 0.0
2016-Dec-05 09:29N 44°16' E 008°27'0 0.5
2016-Dec-05 08:33N 44°16' E 008°27'0 0.3
2016-Dec-05 07:32N 44°16' E 008°28'1 0.7
2016-Dec-05 06:28N 44°16' E 008°27'0 0.0
2016-Dec-05 05:28N 44°16' E 008°27'0 0.0
2016-Dec-05 04:28N 44°16' E 008°27'0 0.0
2016-Dec-05 03:25N 44°16' E 008°27'0 0.0
2016-Dec-05 02:28N 44°16' E 008°27'0 0.0
2016-Dec-05 01:28N 44°16' E 008°27'0 0.0
2016-Dec-05 00:28N 44°16' E 008°27'0 0.0
2016-Dec-04 23:28N 44°16' E 008°27'0 0.0
2016-Dec-04 22:31N 44°16' E 008°27'0 0.0
2016-Dec-04 21:31N 44°16' E 008°27'0 0.0
2016-Dec-04 20:31N 44°16' E 008°27'0 0.0
2016-Dec-04 19:31N 44°16' E 008°27'0 0.0
2016-Dec-04 18:31N 44°16' E 008°27'0 0.0
2016-Dec-04 17:31N 44°16' E 008°27'0 0.0
2016-Dec-04 16:28N 44°16' E 008°27'0 0.0
2016-Dec-04 15:28N 44°16' E 008°27'0 0.0
2016-Dec-04 14:28N 44°16' E 008°27'0 0.0
2016-Dec-04 13:28N 44°16' E 008°27'0 0.0
2016-Dec-04 12:28N 44°16' E 008°27'1 1.0
2016-Dec-04 11:32N 44°16' E 008°28'0 0.1
2016-Dec-04 10:32N 44°17' E 008°28'1 1.0
2016-Dec-04 09:32N 44°16' E 008°27'0 0.0
2016-Dec-04 08:32N 44°16' E 008°27'0 0.0
2016-Dec-04 07:29N 44°16' E 008°27'0 0.0
2016-Dec-04 06:29N 44°16' E 008°27'0 0.0
2016-Dec-04 05:29N 44°16' E 008°27'0 0.0
2016-Dec-04 04:29N 44°16' E 008°27'0 0.0
2016-Dec-04 03:29N 44°16' E 008°27'0 0.0
2016-Dec-04 02:29N 44°16' E 008°27'0 0.0
2016-Dec-04 01:29N 44°16' E 008°27'0 0.0
2016-Dec-04 00:29N 44°16' E 008°27'0 0.0
2016-Dec-03 23:32N 44°16' E 008°27'0 0.0
2016-Dec-03 22:29N 44°16' E 008°27'0 0.0
2016-Dec-03 21:32N 44°16' E 008°27'0 0.0
2016-Dec-03 20:32N 44°16' E 008°27'0 0.0
2016-Dec-03 19:32N 44°16' E 008°27'0 0.0
2016-Dec-03 18:29N 44°16' E 008°27'0 0.0
2016-Dec-03 17:29N 44°16' E 008°27'0 0.0
2016-Dec-03 16:29N 44°16' E 008°27'0 0.0
2016-Dec-03 15:29N 44°16' E 008°27'0 0.0
2016-Dec-03 14:29N 44°16' E 008°27'0 0.0
2016-Dec-03 13:29N 44°16' E 008°27'0 0.0
2016-Dec-03 12:29N 44°16' E 008°27'0 0.0
2016-Dec-03 11:29N 44°16' E 008°27'1 1.1
2016-Dec-03 10:33N 44°17' E 008°28'0 0.2
2016-Dec-03 09:31N 44°17' E 008°28'0 0.3
2016-Dec-03 08:30N 44°16' E 008°28'1 0.8
2016-Dec-03 07:33N 44°16' E 008°27'0 0.0
2016-Dec-03 06:33N 44°16' E 008°27'0 0.0
2016-Dec-03 05:30N 44°16' E 008°27'0 0.0
2016-Dec-03 04:33N 44°16' E 008°27'0 0.0
2016-Dec-03 03:30N 44°16' E 008°27'0 0.0
2016-Dec-03 02:33N 44°16' E 008°27'0 0.0
2016-Dec-03 01:30N 44°16' E 008°27'0 0.0
2016-Dec-03 00:30N 44°16' E 008°27'0 0.0
2016-Dec-02 23:30N 44°16' E 008°27'0 0.0
2016-Dec-02 22:30N 44°16' E 008°27'0 0.0
2016-Dec-02 21:30N 44°16' E 008°27'0 0.0
2016-Dec-02 20:30N 44°16' E 008°27'0 0.0
2016-Dec-02 19:18N 44°16' E 008°27'0 0.0
2016-Dec-02 18:33N 44°16' E 008°27'0 0.0
2016-Dec-02 17:30N 44°16' E 008°27'0 0.0
2016-Dec-02 16:30N 44°16' E 008°27'0 0.0
2016-Dec-02 15:30N 44°16' E 008°27'0 0.0
2016-Dec-02 14:30N 44°16' E 008°27'0 0.0
2016-Dec-02 13:30N 44°16' E 008°27'0 0.0
2016-Dec-02 12:30N 44°16' E 008°27'0 0.0
2016-Dec-02 11:30N 44°16' E 008°27'0 0.0
2016-Dec-02 10:30N 44°16' E 008°27'0 0.0
2016-Dec-02 09:30N 44°16' E 008°27'0 0.0
2016-Dec-02 08:30N 44°16' E 008°27'0 0.0
2016-Dec-02 07:30N 44°16' E 008°27'0 0.0
2016-Dec-02 06:30N 44°16' E 008°27'1 0.6
2016-Dec-02 05:32N 44°16' E 008°27'1 0.6
2016-Dec-02 04:32N 44°16' E 008°27'0 0.0
2016-Dec-02 03:32N 44°16' E 008°27'0 0.0
2016-Dec-02 02:32N 44°16' E 008°27'0 0.0
2016-Dec-02 01:32N 44°16' E 008°27'0 0.0
2016-Dec-02 00:32N 44°16' E 008°27'0 0.0
2016-Dec-01 23:26N 44°16' E 008°27'0 0.0
2016-Dec-01 22:32N 44°16' E 008°27'0 0.0
2016-Dec-01 21:32N 44°16' E 008°27'4 3.7
2016-Dec-01 20:32N 44°19' E 008°30'0 0.1
2016-Dec-01 19:32N 44°19' E 008°30'4 3.6
2016-Dec-01 18:29N 44°16' E 008°27'0 0.0
2016-Dec-01 17:29N 44°16' E 008°27'0 0.0
2016-Dec-01 16:29N 44°16' E 008°27'0 0.0
2016-Dec-01 15:26N 44°16' E 008°27'0 0.0
2016-Dec-01 14:29N 44°16' E 008°27'0 0.0
2016-Dec-01 13:32N 44°16' E 008°27'0 0.0
2016-Dec-01 12:32N 44°16' E 008°27'0 0.0
2016-Dec-01 11:32N 44°16' E 008°27'0 0.0
2016-Dec-01 10:32N 44°16' E 008°27'0 0.0
2016-Dec-01 09:32N 44°16' E 008°27'0 0.0
2016-Dec-01 08:29N 44°16' E 008°27'0 0.0
2016-Dec-01 07:29N 44°16' E 008°27'0 0.0
2016-Dec-01 06:29N 44°16' E 008°27'4 3.8
2016-Dec-01 05:30N 44°19' E 008°30'0 0.1
2016-Dec-01 04:33N 44°19' E 008°30'0 0.1
2016-Dec-01 03:29N 44°19' E 008°30'0 0.1
2016-Dec-01 02:33N 44°19' E 008°30'3 2.8
2016-Dec-01 01:33N 44°16' E 008°28'1 0.8
2016-Dec-01 00:29N 44°16' E 008°27'0 0.0
2016-Nov-30 23:32N 44°16' E 008°27'0 0.0
2016-Nov-30 22:32N 44°16' E 008°27'0 0.0
2016-Nov-30 21:29N 44°16' E 008°27'0 0.0
2016-Nov-30 20:32N 44°16' E 008°27'0 0.0
2016-Nov-30 19:32N 44°16' E 008°27'0 0.0
2016-Nov-30 18:32N 44°16' E 008°27'0 0.0
2016-Nov-30 17:29N 44°16' E 008°27'0 0.0
2016-Nov-30 16:29N 44°16' E 008°27'0 0.0
2016-Nov-30 15:29N 44°16' E 008°27'0 0.0
2016-Nov-30 14:29N 44°16' E 008°27'0 0.0
2016-Nov-30 13:29N 44°16' E 008°27'0 0.0
2016-Nov-30 12:29N 44°16' E 008°27'0 0.0
2016-Nov-30 11:29N 44°16' E 008°27'0 0.0
2016-Nov-30 10:29N 44°16' E 008°27'0 0.0
2016-Nov-30 09:29N 44°16' E 008°27'0 0.0
2016-Nov-30 08:29N 44°16' E 008°27'0 0.0
2016-Nov-30 07:32N 44°16' E 008°27'0 0.0
2016-Nov-30 06:32N 44°16' E 008°27'0 0.0
2016-Nov-30 05:29N 44°16' E 008°27'0 0.0
2016-Nov-30 04:32N 44°16' E 008°27'0 0.0
2016-Nov-30 03:29N 44°16' E 008°27'0 0.0
2016-Nov-30 02:29N 44°16' E 008°27'0 0.0
2016-Nov-30 01:29N 44°16' E 008°27'0 0.0
2016-Nov-30 00:29N 44°16' E 008°27'0 0.0
2016-Nov-29 23:23N 44°16' E 008°27'0 0.0
2016-Nov-29 22:29N 44°16' E 008°27'0 0.0
2016-Nov-29 21:29N 44°16' E 008°27'  
Track history (hours):
 
Tides and Currents Weather Stations Pressure Air Temp Water Temp Dewpoint Dewpoint Depression Visibility Wind Speed Wind Dir Waves Ship Positions

Anna Noli

Last reported at 2016-Dec-09 20:30 UTC. Time now 2016-Dec-09 21:21 UTC.
Position N 44°16' E 008°27'.

Length 32 m.

Type: Tug. MMSI: 247046500.

Date/timePositionNaut miles runAvg speedWind from/ knotsBaromVisibWave heightAir tempDewpointWater temp
2016-Dec-09 20:30N 44°16' E 008°27'0 0.0
2016-Dec-09 19:30N 44°16' E 008°27'0 0.0
2016-Dec-09 18:30N 44°16' E 008°27'0 0.0
2016-Dec-09 17:30N 44°16' E 008°27'0 0.0
2016-Dec-09 16:30N 44°16' E 008°27'0 0.0
2016-Dec-09 15:30N 44°16' E 008°27'0 0.0
2016-Dec-09 14:30N 44°16' E 008°27'0 0.0
2016-Dec-09 13:30N 44°16' E 008°27'0 0.0
2016-Dec-09 12:30N 44°16' E 008°27'0 0.0
2016-Dec-09 11:30N 44°16' E 008°27'0 0.0
2016-Dec-09 10:30N 44°16' E 008°27'0 0.0
2016-Dec-09 09:30N 44°16' E 008°27'0 0.0
2016-Dec-09 08:30N 44°16' E 008°27'0 0.0
2016-Dec-09 07:30N 44°16' E 008°27'0 0.0
2016-Dec-09 06:30N 44°16' E 008°27'1 0.6
2016-Dec-09 05:33N 44°16' E 008°27'1 0.6
2016-Dec-09 04:31N 44°16' E 008°27'0 0.0
2016-Dec-09 03:31N 44°16' E 008°27'0 0.0
2016-Dec-09 02:31N 44°16' E 008°27'0 0.0
2016-Dec-09 01:31N 44°16' E 008°27'0 0.0
2016-Dec-09 00:31N 44°16' E 008°27'0 0.0
2016-Dec-08 23:31N 44°16' E 008°27'0 0.0
2016-Dec-08 22:31N 44°16' E 008°27'0 0.0
2016-Dec-08 21:31N 44°16' E 008°27'0 0.0
2016-Dec-08 20:31N 44°16' E 008°27'0 0.0
2016-Dec-08 19:31N 44°16' E 008°27'0 0.0
2016-Dec-08 18:31N 44°16' E 008°27'0 0.0
2016-Dec-08 17:31N 44°16' E 008°27'0 0.0
2016-Dec-08 16:31N 44°16' E 008°27'0 0.0
2016-Dec-08 15:25N 44°16' E 008°27'0 0.0
2016-Dec-08 14:31N 44°16' E 008°27'0 0.0
2016-Dec-08 13:31N 44°16' E 008°27'0 0.0
2016-Dec-08 12:31N 44°16' E 008°27'0 0.0
2016-Dec-08 11:31N 44°16' E 008°27'0 0.0
2016-Dec-08 10:31N 44°16' E 008°27'0 0.0
2016-Dec-08 09:31N 44°16' E 008°27'0 0.0
2016-Dec-08 08:31N 44°16' E 008°27'0 0.0
2016-Dec-08 07:31N 44°16' E 008°27'0 0.0
2016-Dec-08 06:31N 44°16' E 008°27'2 1.6
2016-Dec-08 05:30N 44°16' E 008°29'2 1.7
2016-Dec-08 04:32N 44°16' E 008°27'0 0.0
2016-Dec-08 03:32N 44°16' E 008°27'0 0.0
2016-Dec-08 02:32N 44°16' E 008°27'0 0.0
2016-Dec-08 01:32N 44°16' E 008°27'0 0.0
2016-Dec-08 00:32N 44°16' E 008°27'0 0.0
2016-Dec-07 23:32N 44°16' E 008°27'0 0.0
2016-Dec-07 22:32N 44°16' E 008°27'0 0.0
2016-Dec-07 21:32N 44°16' E 008°27'0 0.0
2016-Dec-07 20:32N 44°16' E 008°27'0 0.0
2016-Dec-07 19:32N 44°16' E 008°27'0 0.0
2016-Dec-07 18:32N 44°16' E 008°27'0 0.0
2016-Dec-07 17:32N 44°16' E 008°27'0 0.0
2016-Dec-07 16:32N 44°16' E 008°27'0 0.0
2016-Dec-07 15:26N 44°16' E 008°27'0 0.0
2016-Dec-07 14:32N 44°16' E 008°27'0 0.0
2016-Dec-07 13:32N 44°16' E 008°27'0 0.0
2016-Dec-07 12:32N 44°16' E 008°27'0 0.0
2016-Dec-07 11:32N 44°16' E 008°27'0 0.3
2016-Dec-07 10:31N 44°16' E 008°27'0 0.4
2016-Dec-07 09:32N 44°16' E 008°27'0 0.5
2016-Dec-07 08:30N 44°17' E 008°28'1 0.9
2016-Dec-07 07:33N 44°16' E 008°28'1 0.8
2016-Dec-07 06:28N 44°16' E 008°27'0 0.0
2016-Dec-07 05:28N 44°16' E 008°27'0 0.0
2016-Dec-07 04:28N 44°16' E 008°27'0 0.0
2016-Dec-07 03:28N 44°16' E 008°27'0 0.0
2016-Dec-07 02:28N 44°16' E 008°27'0 0.0
2016-Dec-07 01:28N 44°16' E 008°27'0 0.0
2016-Dec-07 00:28N 44°16' E 008°27'0 0.0
2016-Dec-06 23:31N 44°16' E 008°27'0 0.0
2016-Dec-06 22:28N 44°16' E 008°27'4 3.7
2016-Dec-06 21:31N 44°19' E 008°30'2 1.7
2016-Dec-06 20:33N 44°17' E 008°29'2 1.0
2016-Dec-06 18:28N 44°16' E 008°27'0 0.0
2016-Dec-06 17:28N 44°16' E 008°27'0 0.0
2016-Dec-06 16:28N 44°16' E 008°27'0 0.0
2016-Dec-06 15:28N 44°16' E 008°27'0 0.0
2016-Dec-06 14:28N 44°16' E 008°27'0 0.0
2016-Dec-06 13:28N 44°16' E 008°27'0 0.1
2016-Dec-06 12:30N 44°16' E 008°27'0 0.2
2016-Dec-06 11:28N 44°16' E 008°27'0 0.2
2016-Dec-06 10:31N 44°16' E 008°27'0 0.0
2016-Dec-06 09:31N 44°16' E 008°27'0 0.0
2016-Dec-06 08:28N 44°16' E 008°27'0 0.0
2016-Dec-06 07:28N 44°16' E 008°27'1 0.6
2016-Dec-06 06:32N 44°16' E 008°27'1 0.5
2016-Dec-06 05:29N 44°16' E 008°27'0 0.0
2016-Dec-06 04:29N 44°16' E 008°27'0 0.0
2016-Dec-06 03:32N 44°16' E 008°27'0 0.0
2016-Dec-06 02:29N 44°16' E 008°27'0 0.0
2016-Dec-06 01:29N 44°16' E 008°27'0 0.0
2016-Dec-06 00:29N 44°16' E 008°27'0 0.0
2016-Dec-05 23:29N 44°16' E 008°27'0 0.0
2016-Dec-05 22:29N 44°16' E 008°27'0 0.0
2016-Dec-05 21:29N 44°16' E 008°27'0 0.0
2016-Dec-05 20:29N 44°16' E 008°27'0 0.0
2016-Dec-05 19:29N 44°16' E 008°27'0 0.0
2016-Dec-05 18:29N 44°16' E 008°27'0 0.0
2016-Dec-05 17:29N 44°16' E 008°27'0 0.0
2016-Dec-05 16:29N 44°16' E 008°27'0 0.0
2016-Dec-05 15:32N 44°16' E 008°27'0 0.0
2016-Dec-05 14:32N 44°16' E 008°27'0 0.0
2016-Dec-05 13:29N 44°16' E 008°27'0 0.0
2016-Dec-05 12:29N 44°16' E 008°27'0 0.0
2016-Dec-05 11:29N 44°16' E 008°27'0 0.0
2016-Dec-05 10:29N 44°16' E 008°27'0 0.0
2016-Dec-05 09:29N 44°16' E 008°27'0 0.5
2016-Dec-05 08:33N 44°16' E 008°27'0 0.3
2016-Dec-05 07:32N 44°16' E 008°28'1 0.7
2016-Dec-05 06:28N 44°16' E 008°27'0 0.0
2016-Dec-05 05:28N 44°16' E 008°27'0 0.0
2016-Dec-05 04:28N 44°16' E 008°27'0 0.0
2016-Dec-05 03:25N 44°16' E 008°27'0 0.0
2016-Dec-05 02:28N 44°16' E 008°27'0 0.0
2016-Dec-05 01:28N 44°16' E 008°27'0 0.0
2016-Dec-05 00:28N 44°16' E 008°27'0 0.0
2016-Dec-04 23:28N 44°16' E 008°27'0 0.0
2016-Dec-04 22:31N 44°16' E 008°27'0 0.0
2016-Dec-04 21:31N 44°16' E 008°27'0 0.0
2016-Dec-04 20:31N 44°16' E 008°27'0 0.0
2016-Dec-04 19:31N 44°16' E 008°27'0 0.0
2016-Dec-04 18:31N 44°16' E 008°27'0 0.0
2016-Dec-04 17:31N 44°16' E 008°27'0 0.0
2016-Dec-04 16:28N 44°16' E 008°27'0 0.0
2016-Dec-04 15:28N 44°16' E 008°27'0 0.0
2016-Dec-04 14:28N 44°16' E 008°27'0 0.0
2016-Dec-04 13:28N 44°16' E 008°27'0 0.0
2016-Dec-04 12:28N 44°16' E 008°27'1 1.0
2016-Dec-04 11:32N 44°16' E 008°28'0 0.1
2016-Dec-04 10:32N 44°17' E 008°28'1 1.0
2016-Dec-04 09:32N 44°16' E 008°27'0 0.0
2016-Dec-04 08:32N 44°16' E 008°27'0 0.0
2016-Dec-04 07:29N 44°16' E 008°27'0 0.0
2016-Dec-04 06:29N 44°16' E 008°27'0 0.0
2016-Dec-04 05:29N 44°16' E 008°27'0 0.0
2016-Dec-04 04:29N 44°16' E 008°27'0 0.0
2016-Dec-04 03:29N 44°16' E 008°27'0 0.0
2016-Dec-04 02:29N 44°16' E 008°27'0 0.0
2016-Dec-04 01:29N 44°16' E 008°27'0 0.0
2016-Dec-04 00:29N 44°16' E 008°27'0 0.0
2016-Dec-03 23:32N 44°16' E 008°27'0 0.0
2016-Dec-03 22:29N 44°16' E 008°27'0 0.0
2016-Dec-03 21:32N 44°16' E 008°27'0 0.0
2016-Dec-03 20:32N 44°16' E 008°27'0 0.0
2016-Dec-03 19:32N 44°16' E 008°27'0 0.0
2016-Dec-03 18:29N 44°16' E 008°27'0 0.0
2016-Dec-03 17:29N 44°16' E 008°27'0 0.0
2016-Dec-03 16:29N 44°16' E 008°27'0 0.0
2016-Dec-03 15:29N 44°16' E 008°27'0 0.0
2016-Dec-03 14:29N 44°16' E 008°27'0 0.0
2016-Dec-03 13:29N 44°16' E 008°27'0 0.0
2016-Dec-03 12:29N 44°16' E 008°27'0 0.0
2016-Dec-03 11:29N 44°16' E 008°27'1 1.1
2016-Dec-03 10:33N 44°17' E 008°28'0 0.2
2016-Dec-03 09:31N 44°17' E 008°28'0 0.3
2016-Dec-03 08:30N 44°16' E 008°28'1 0.8
2016-Dec-03 07:33N 44°16' E 008°27'0 0.0
2016-Dec-03 06:33N 44°16' E 008°27'0 0.0
2016-Dec-03 05:30N 44°16' E 008°27'0 0.0
2016-Dec-03 04:33N 44°16' E 008°27'0 0.0
2016-Dec-03 03:30N 44°16' E 008°27'0 0.0
2016-Dec-03 02:33N 44°16' E 008°27'0 0.0
2016-Dec-03 01:30N 44°16' E 008°27'0 0.0
2016-Dec-03 00:30N 44°16' E 008°27'0 0.0
2016-Dec-02 23:30N 44°16' E 008°27'0 0.0
2016-Dec-02 22:30N 44°16' E 008°27'0 0.0
2016-Dec-02 21:30N 44°16' E 008°27'0 0.0
2016-Dec-02 20:30N 44°16' E 008°27'0 0.0
2016-Dec-02 19:18N 44°16' E 008°27'0 0.0
2016-Dec-02 18:33N 44°16' E 008°27'0 0.0
2016-Dec-02 17:30N 44°16' E 008°27'0 0.0
2016-Dec-02 16:30N 44°16' E 008°27'0 0.0
2016-Dec-02 15:30N 44°16' E 008°27'0 0.0
2016-Dec-02 14:30N 44°16' E 008°27'0 0.0
2016-Dec-02 13:30N 44°16' E 008°27'0 0.0
2016-Dec-02 12:30N 44°16' E 008°27'0 0.0
2016-Dec-02 11:30N 44°16' E 008°27'0 0.0
2016-Dec-02 10:30N 44°16' E 008°27'0 0.0
2016-Dec-02 09:30N 44°16' E 008°27'0 0.0
2016-Dec-02 08:30N 44°16' E 008°27'0 0.0
2016-Dec-02 07:30N 44°16' E 008°27'0 0.0
2016-Dec-02 06:30N 44°16' E 008°27'1 0.6
2016-Dec-02 05:32N 44°16' E 008°27'1 0.6
2016-Dec-02 04:32N 44°16' E 008°27'0 0.0
2016-Dec-02 03:32N 44°16' E 008°27'0 0.0
2016-Dec-02 02:32N 44°16' E 008°27'0 0.0
2016-Dec-02 01:32N 44°16' E 008°27'0 0.0
2016-Dec-02 00:32N 44°16' E 008°27'0 0.0
2016-Dec-01 23:26N 44°16' E 008°27'0 0.0
2016-Dec-01 22:32N 44°16' E 008°27'0 0.0
2016-Dec-01 21:32N 44°16' E 008°27'4 3.7
2016-Dec-01 20:32N 44°19' E 008°30'0 0.1
2016-Dec-01 19:32N 44°19' E 008°30'4 3.6
2016-Dec-01 18:29N 44°16' E 008°27'0 0.0
2016-Dec-01 17:29N 44°16' E 008°27'0 0.0
2016-Dec-01 16:29N 44°16' E 008°27'0 0.0
2016-Dec-01 15:26N 44°16' E 008°27'0 0.0
2016-Dec-01 14:29N 44°16' E 008°27'0 0.0
2016-Dec-01 13:32N 44°16' E 008°27'0 0.0
2016-Dec-01 12:32N 44°16' E 008°27'0 0.0
2016-Dec-01 11:32N 44°16' E 008°27'0 0.0
2016-Dec-01 10:32N 44°16' E 008°27'0 0.0
2016-Dec-01 09:32N 44°16' E 008°27'0 0.0
2016-Dec-01 08:29N 44°16' E 008°27'0 0.0
2016-Dec-01 07:29N 44°16' E 008°27'0 0.0
2016-Dec-01 06:29N 44°16' E 008°27'4 3.8
2016-Dec-01 05:30N 44°19' E 008°30'0 0.1
2016-Dec-01 04:33N 44°19' E 008°30'0 0.1
2016-Dec-01 03:29N 44°19' E 008°30'0 0.1
2016-Dec-01 02:33N 44°19' E 008°30'3 2.8
2016-Dec-01 01:33N 44°16' E 008°28'1 0.8
2016-Dec-01 00:29N 44°16' E 008°27'0 0.0
2016-Nov-30 23:32N 44°16' E 008°27'0 0.0
2016-Nov-30 22:32N 44°16' E 008°27'0 0.0
2016-Nov-30 21:29N 44°16' E 008°27'0 0.0
2016-Nov-30 20:32N 44°16' E 008°27'0 0.0
2016-Nov-30 19:32N 44°16' E 008°27'0 0.0
2016-Nov-30 18:32N 44°16' E 008°27'0 0.0
2016-Nov-30 17:29N 44°16' E 008°27'0 0.0
2016-Nov-30 16:29N 44°16' E 008°27'0 0.0
2016-Nov-30 15:29N 44°16' E 008°27'0 0.0
2016-Nov-30 14:29N 44°16' E 008°27'0 0.0
2016-Nov-30 13:29N 44°16' E 008°27'0 0.0
2016-Nov-30 12:29N 44°16' E 008°27'0 0.0
2016-Nov-30 11:29N 44°16' E 008°27'0 0.0
2016-Nov-30 10:29N 44°16' E 008°27'0 0.0
2016-Nov-30 09:29N 44°16' E 008°27'0 0.0
2016-Nov-30 08:29N 44°16' E 008°27'0 0.0
2016-Nov-30 07:32N 44°16' E 008°27'0 0.0
2016-Nov-30 06:32N 44°16' E 008°27'0 0.0
2016-Nov-30 05:29N 44°16' E 008°27'0 0.0
2016-Nov-30 04:32N 44°16' E 008°27'0 0.0
2016-Nov-30 03:29N 44°16' E 008°27'0 0.0
2016-Nov-30 02:29N 44°16' E 008°27'0 0.0
2016-Nov-30 01:29N 44°16' E 008°27'0 0.0
2016-Nov-30 00:29N 44°16' E 008°27'0 0.0
2016-Nov-29 23:23N 44°16' E 008°27'0 0.0
2016-Nov-29 22:29N 44°16' E 008°27'0 0.0
2016-Nov-29 21:29N 44°16' E 008°27'  

Dump ship's entire track history